sim
Sign-in with your pilot id or email,
or register
Callsign
Passwort

Schedule Details

Flight Number: RYR966 (1)
Departure: London Stansted Airport (EGSS) at 08:45
Arrival: Gothenburg Landvetter Airport (ESGG) at 10:35
Route: Ryanair Passenger Schedule. Enter filed route here before submitting Pirep.

Weather Information
Getting current METAR information for EGSS 200150Z AUTO 15009KT 9999 NCD 11/08 Q1003
Getting current METAR information for ESGG 200150Z 14009KT 9999 FEW024 BKN044 04/02 Q1015

Schedule Frequency

Route Map